createdAt,value
2024-01-03T00:01:34.086Z,98262.94
2024-01-03T00:04:00.809Z,98259.47
2024-01-03T00:06:33.690Z,98252.59
2024-01-03T00:09:01.121Z,98249.97
2024-01-03T00:11:31.677Z,98253.19
2024-01-03T00:14:22.998Z,98244.53
2024-01-03T00:16:49.864Z,98244.91
2024-01-03T00:19:19.925Z,98246.53
2024-01-03T00:21:46.667Z,98242.47
2024-01-03T00:24:17.369Z,98237.63
2024-01-03T00:26:44.126Z,98234.59
2024-01-03T00:29:19.693Z,98231.97
2024-01-03T00:31:47.214Z,98232.97
2024-01-03T00:34:19.965Z,98224.69
2024-01-03T00:36:48.336Z,98222.66
2024-01-03T00:39:14.838Z,98229.56
2024-01-03T00:41:41.982Z,98225.09
2024-01-03T00:44:08.604Z,98227.91
2024-01-03T00:46:35.884Z,98229.16
2024-01-03T00:49:02.713Z,98217.41
2024-01-03T00:51:30.228Z,98217.19
2024-01-03T00:53:57.333Z,98226.09
2024-01-03T00:56:23.922Z,98214.94
2024-01-03T00:58:50.714Z,98209.31
2024-01-03T01:01:17.725Z,98211.31
2024-01-03T01:03:44.594Z,98214.13
2024-01-03T01:06:11.307Z,98220.03
2024-01-03T01:08:38.486Z,98221.44
2024-01-03T01:11:05.013Z,98234.59
2024-01-03T01:13:31.663Z,98219.81
2024-01-03T01:15:58.146Z,98225.09
2024-01-03T01:18:24.802Z,98223.47
2024-01-03T01:20:51.485Z,98229.53
2024-01-03T01:23:18.750Z,98231.97
2024-01-03T01:25:45.369Z,98222.25
2024-01-03T01:28:12.502Z,98220.03
2024-01-03T01:30:39.089Z,98221.44
2024-01-03T01:33:06.314Z,98222.06
2024-01-03T01:35:32.941Z,98224.88
2024-01-03T01:38:04.111Z,98233.78
2024-01-03T01:40:30.705Z,98231.94
2024-01-03T01:42:57.143Z,98226.50
2024-01-03T01:45:23.702Z,98235.00
2024-01-03T01:47:51.985Z,98246.13
2024-01-03T01:50:19.528Z,98231.16
2024-01-03T01:52:46.258Z,98234.59
2024-01-03T01:55:13.026Z,98237.44
2024-01-03T01:57:41.068Z,98230.34
2024-01-03T02:00:08.746Z,98234.41
2024-01-03T02:02:43.943Z,98227.28
2024-01-03T02:05:11.192Z,98217.75
2024-01-03T02:07:38.259Z,98214.53
2024-01-03T02:10:05.801Z,98220.19
2024-01-03T02:12:32.328Z,98214.31
2024-01-03T02:14:59.105Z,98216.16
2024-01-03T02:17:29.108Z,98213.09
2024-01-03T02:20:01.625Z,98212.50
2024-01-03T02:22:31.715Z,98214.09
2024-01-03T02:24:58.376Z,98203.34
2024-01-03T02:27:24.938Z,98210.06
2024-01-03T02:29:51.900Z,98203.59
2024-01-03T02:32:18.641Z,98202.75
2024-01-03T02:34:45.284Z,98201.16
2024-01-03T02:37:12.283Z,98203.34
2024-01-03T02:39:38.761Z,98208.41
2024-01-03T02:42:06.300Z,98211.06
2024-01-03T02:44:32.807Z,98213.09
2024-01-03T02:46:59.437Z,98207.63
2024-01-03T02:49:26.051Z,98224.63
2024-01-03T02:51:52.684Z,98231.06
2024-01-03T02:54:19.140Z,98224.56
2024-01-03T02:56:45.771Z,98229.03
2024-01-03T02:59:12.265Z,98227.78
2024-01-03T03:01:38.811Z,98228.56
2024-01-03T03:04:05.439Z,98226.28
2024-01-03T03:06:32.181Z,98238.22
2024-01-03T03:09:09.277Z,98224.66
2024-01-03T03:11:43.053Z,98223.03
2024-01-03T03:14:11.233Z,98221.44
2024-01-03T03:16:37.788Z,98219.41
2024-01-03T03:19:05.112Z,98220.59
2024-01-03T03:21:31.712Z,98220.00
2024-01-03T03:23:58.253Z,98219.38
2024-01-03T03:26:24.793Z,98228.47
2024-01-03T03:28:51.762Z,98217.97
2024-01-03T03:31:18.232Z,98220.38
2024-01-03T03:33:45.075Z,98216.16
2024-01-03T03:36:13.175Z,98215.69
2024-01-03T03:38:40.231Z,98208.75
2024-01-03T03:41:13.231Z,98216.22
2024-01-03T03:43:40.875Z,98207.16
2024-01-03T03:46:08.581Z,98215.41
2024-01-03T03:48:35.718Z,98221.25
2024-01-03T03:51:02.969Z,98206.50
2024-01-03T03:53:29.516Z,98202.84
2024-01-03T03:55:56.166Z,98221.41
2024-01-03T03:58:22.842Z,98186.69
2024-01-03T04:00:49.617Z,98198.41
2024-01-03T04:03:16.380Z,98192.78
2024-01-03T04:05:43.051Z,98195.53
2024-01-03T04:08:10.546Z,98184.63
2024-01-03T04:10:38.175Z,98200.78
2024-01-03T04:13:04.840Z,98197.56
2024-01-03T04:15:31.470Z,98190.31
2024-01-03T04:17:58.117Z,98189.06
2024-01-03T04:20:24.844Z,98193.16
2024-01-03T04:22:51.577Z,98210.25
2024-01-03T04:25:18.329Z,98185.84
2024-01-03T04:27:44.876Z,98200.78
2024-01-03T04:30:11.611Z,98184.22
2024-01-03T04:32:39.100Z,98193.69
2024-01-03T04:35:06.095Z,98195.88
2024-01-03T04:37:33.652Z,98205.16
2024-01-03T04:40:00.321Z,98195.88
2024-01-03T04:42:27.027Z,98186.19
2024-01-03T04:44:54.481Z,98196.53
2024-01-03T04:47:21.224Z,98212.28
2024-01-03T04:49:48.389Z,98196.34
2024-01-03T04:52:15.041Z,98208.84
2024-01-03T04:54:41.568Z,98198.94
2024-01-03T04:57:08.201Z,98212.88
2024-01-03T04:59:34.710Z,98220.16
2024-01-03T05:02:01.210Z,98221.97
2024-01-03T05:04:27.794Z,98214.72
2024-01-03T05:06:54.520Z,98221.38
2024-01-03T05:09:21.010Z,98213.09
2024-01-03T05:11:47.851Z,98211.91
2024-01-03T05:14:14.363Z,98220.63
2024-01-03T05:16:42.519Z,98213.13
2024-01-03T05:19:09.394Z,98203.88
2024-01-03T05:21:36.236Z,98201.25
2024-01-03T05:24:03.128Z,98211.94
2024-01-03T05:26:29.798Z,98223.06
2024-01-03T05:28:56.337Z,98228.16
2024-01-03T05:31:24.220Z,98215.03
2024-01-03T05:33:51.561Z,98229.13
2024-01-03T05:36:18.235Z,98209.78
2024-01-03T05:38:44.788Z,98210.16
2024-01-03T05:41:12.331Z,98203.13
2024-01-03T05:43:38.888Z,98212.19
2024-01-03T05:46:05.347Z,98217.47
2024-01-03T05:48:31.983Z,98222.91
2024-01-03T05:50:58.603Z,98219.44
2024-01-03T05:53:25.332Z,98213.63
2024-01-03T05:55:51.865Z,98223.50
2024-01-03T05:58:18.482Z,98249.00
2024-01-03T06:00:45.029Z,98233.63
2024-01-03T06:03:11.600Z,98218.25
2024-01-03T06:05:38.282Z,98229.75
2024-01-03T06:08:05.807Z,98242.91
2024-01-03T06:10:32.365Z,98232.38
2024-01-03T06:12:58.933Z,98248.97
2024-01-03T06:15:25.427Z,98236.41
2024-01-03T06:17:52.106Z,98242.22
2024-01-03T06:20:20.513Z,98243.44
2024-01-03T06:22:48.155Z,98254.56
2024-01-03T06:25:14.651Z,98239.97
2024-01-03T06:27:41.213Z,98243.81
2024-01-03T06:30:08.346Z,98277.94
2024-01-03T06:32:34.967Z,98263.19
2024-01-03T06:35:01.506Z,98267.81
2024-01-03T06:37:27.969Z,98269.47
2024-01-03T06:39:54.576Z,98267.03
2024-01-03T06:42:21.051Z,98285.59
2024-01-03T06:44:47.638Z,98283.19
2024-01-03T06:47:14.287Z,98281.75
2024-01-03T06:49:42.005Z,98281.34
2024-01-03T06:52:08.933Z,98296.88
2024-01-03T06:54:36.309Z,98285.59
2024-01-03T06:57:04.687Z,98296.28
2024-01-03T06:59:38.246Z,98298.91
2024-01-03T07:02:05.193Z,98296.47
2024-01-03T07:04:31.814Z,98294.06
2024-01-03T07:06:58.481Z,98300.97
2024-01-03T07:09:25.125Z,98305.75
2024-01-03T07:11:51.929Z,98320.75
2024-01-03T07:14:18.665Z,98303.81
2024-01-03T07:16:46.559Z,98308.91
2024-01-03T07:19:14.837Z,98326.50
2024-01-03T07:21:41.502Z,98327.53
2024-01-03T07:24:08.090Z,98324.66
2024-01-03T07:26:34.709Z,98327.47
2024-01-03T07:29:01.751Z,98324.25
2024-01-03T07:31:28.280Z,98338.16
2024-01-03T07:33:54.900Z,98343.00
2024-01-03T07:36:21.756Z,98334.50
2024-01-03T07:38:48.411Z,98336.88
2024-01-03T07:41:20.109Z,98341.31
2024-01-03T07:43:46.970Z,98347.38
2024-01-03T07:46:16.500Z,98330.81
2024-01-03T07:48:43.294Z,98336.88
2024-01-03T07:51:18.190Z,98331.81
2024-01-03T07:53:44.684Z,98339.50
2024-01-03T07:56:11.369Z,98347.38
2024-01-03T07:58:37.965Z,98340.53
2024-01-03T08:01:04.729Z,98345.78
2024-01-03T08:03:31.255Z,98341.94
2024-01-03T08:06:00.497Z,98335.28
2024-01-03T08:08:28.311Z,98334.06
2024-01-03T08:10:54.845Z,98340.94
2024-01-03T08:13:21.475Z,98334.25
2024-01-03T08:15:48.692Z,98326.81
2024-01-03T08:18:15.507Z,98334.94
2024-01-03T08:20:42.313Z,98341.06
2024-01-03T08:23:09.011Z,98333.03
2024-01-03T08:25:35.469Z,98347.38
2024-01-03T08:28:02.001Z,98341.59
2024-01-03T08:30:28.504Z,98355.09
2024-01-03T08:32:55.943Z,98347.03
2024-01-03T08:35:22.600Z,98336.34
2024-01-03T08:37:49.254Z,98344.25
2024-01-03T08:40:15.793Z,98352.94
2024-01-03T08:42:42.316Z,98369.75
2024-01-03T08:45:10.656Z,98366.56
2024-01-03T08:47:37.294Z,98367.72
2024-01-03T08:50:04.236Z,98382.38
2024-01-03T08:52:30.863Z,98383.97
2024-01-03T08:54:57.682Z,98385.03
2024-01-03T08:57:24.320Z,98391.75
2024-01-03T08:59:50.889Z,98399.00
2024-01-03T09:02:17.506Z,98393.34
2024-01-03T09:04:44.095Z,98413.38
2024-01-03T09:07:10.694Z,98399.41
2024-01-03T09:09:40.318Z,98401.44
2024-01-03T09:12:06.981Z,98410.91
2024-01-03T09:14:33.564Z,98415.97
2024-01-03T09:17:00.094Z,98412.78
2024-01-03T09:19:27.002Z,98415.63
2024-01-03T09:21:55.612Z,98417.91
2024-01-03T09:24:22.090Z,98409.22
2024-01-03T09:26:48.760Z,98414.69
2024-01-03T09:29:15.497Z,98419.56
2024-01-03T09:31:44.289Z,98423.41
2024-01-03T09:34:11.099Z,98424.44
2024-01-03T09:36:37.740Z,98414.13
2024-01-03T09:39:04.436Z,98419.97
2024-01-03T09:41:32.629Z,98421.00
2024-01-03T09:44:00.958Z,98442.88
2024-01-03T09:46:27.659Z,98445.72
2024-01-03T09:48:54.524Z,98436.59
2024-01-03T09:51:22.455Z,98446.28
2024-01-03T09:53:52.589Z,98441.41
2024-01-03T09:56:19.286Z,98450.50
2024-01-03T09:58:47.768Z,98446.06
2024-01-03T10:01:14.303Z,98447.31
2024-01-03T10:03:40.910Z,98450.19
2024-01-03T10:06:11.416Z,98452.19
2024-01-03T10:08:41.918Z,98447.38
2024-01-03T10:11:20.618Z,98452.00
2024-01-03T10:13:50.015Z,98442.91
2024-01-03T10:16:24.639Z,98461.13
2024-01-03T10:19:14.613Z,98449.38
2024-01-03T10:21:52.528Z,98457.91
2024-01-03T10:24:20.594Z,98450.22
2024-01-03T10:26:47.493Z,98469.66
2024-01-03T10:29:20.909Z,98454.69
2024-01-03T10:31:48.937Z,98465.66
2024-01-03T10:34:22.080Z,98462.41
2024-01-03T10:36:50.646Z,98475.38
2024-01-03T10:39:19.779Z,98465.66
2024-01-03T10:41:51.022Z,98468.09
2024-01-03T10:44:19.054Z,98470.56
2024-01-03T10:46:47.035Z,98457.97
2024-01-03T10:49:14.259Z,98471.53
2024-01-03T10:51:48.672Z,98477.22
2024-01-03T10:54:17.940Z,98478.22
2024-01-03T10:56:54.182Z,98465.88
2024-01-03T10:59:29.845Z,98473.59
2024-01-03T11:02:02.216Z,98464.50
2024-01-03T11:04:53.950Z,98495.28
2024-01-03T11:07:30.589Z,98466.53
2024-01-03T11:09:57.098Z,98471.78
2024-01-03T11:12:28.687Z,98465.69
2024-01-03T11:14:55.285Z,98464.47
2024-01-03T11:17:34.867Z,98465.69
2024-01-03T11:20:09.111Z,98474.16
2024-01-03T11:23:05.593Z,98473.97
2024-01-03T11:25:48.814Z,98476.22
2024-01-03T11:28:32.558Z,98489.19
2024-01-03T11:31:02.388Z,98498.69
2024-01-03T11:33:32.120Z,98483.72
2024-01-03T11:35:59.116Z,98522.81
2024-01-03T11:38:45.345Z,98492.41
2024-01-03T11:41:18.420Z,98501.72
2024-01-03T11:43:44.964Z,98500.47
2024-01-03T11:46:13.598Z,98494.81
2024-01-03T11:48:41.098Z,98498.25
2024-01-03T11:51:25.242Z,98496.44
2024-01-03T11:53:52.521Z,98507.38
2024-01-03T11:56:29.263Z,98486.69
2024-01-03T11:58:56.586Z,98493.59
2024-01-03T12:01:23.031Z,98492.41
2024-01-03T12:03:49.526Z,98498.66
2024-01-03T12:06:21.172Z,98492.59
2024-01-03T12:08:48.017Z,98493.78
2024-01-03T12:11:15.088Z,98490.69
2024-01-03T12:13:41.643Z,98499.31
2024-01-03T12:16:09.107Z,98499.47
2024-01-03T12:18:48.826Z,98496.25
2024-01-03T12:21:15.513Z,98489.84
2024-01-03T12:24:00.856Z,98489.84
2024-01-03T12:26:27.542Z,98488.19
2024-01-03T12:29:01.728Z,98511.00
2024-01-03T12:31:28.433Z,98490.78
2024-01-03T12:34:04.559Z,98495.41
2024-01-03T12:36:31.282Z,98498.03
2024-01-03T12:39:01.638Z,98491.16
2024-01-03T12:41:28.260Z,98496.41
2024-01-03T12:43:54.749Z,98497.75
2024-01-03T12:46:21.270Z,98496.94
2024-01-03T12:48:49.699Z,98510.88
2024-01-03T12:51:16.320Z,98511.56
2024-01-03T12:53:42.897Z,98495.00
2024-01-03T12:56:09.412Z,98486.91
2024-01-03T12:58:35.968Z,98487.53
2024-01-03T13:01:02.565Z,98496.22
2024-01-03T13:03:29.103Z,98501.47
2024-01-03T13:05:55.706Z,98505.50
2024-01-03T13:08:22.287Z,98506.44
2024-01-03T13:10:48.810Z,98522.00
2024-01-03T13:13:15.398Z,98521.16
2024-01-03T13:15:44.122Z,98512.78
2024-01-03T13:18:12.305Z,98507.81
2024-01-03T13:20:39.086Z,98510.44
2024-01-03T13:23:05.630Z,98510.78
2024-01-03T13:25:32.144Z,98524.84
2024-01-03T13:27:59.123Z,98524.66
2024-01-03T13:30:26.004Z,98527.59
2024-01-03T13:32:52.740Z,98525.84
2024-01-03T13:35:19.775Z,98524.97
2024-01-03T13:37:46.659Z,98540.25
2024-01-03T13:40:13.311Z,98530.09
2024-01-03T13:42:39.896Z,98540.59
2024-01-03T13:45:07.725Z,98537.34
2024-01-03T13:47:34.574Z,98533.91
2024-01-03T13:50:01.980Z,98524.47
2024-01-03T13:52:28.534Z,98525.72
2024-01-03T13:54:55.079Z,98525.91
2024-01-03T13:57:21.598Z,98529.34
2024-01-03T13:59:48.143Z,98529.53
2024-01-03T14:02:15.758Z,98533.97
2024-01-03T14:04:42.218Z,98530.53
2024-01-03T14:07:08.790Z,98532.97
2024-01-03T14:09:35.348Z,98535.22
2024-01-03T14:12:02.004Z,98535.66
2024-01-03T14:14:30.555Z,98540.72
2024-01-03T14:17:01.490Z,98539.53
2024-01-03T14:19:28.245Z,98533.09
2024-01-03T14:21:54.884Z,98538.56
2024-01-03T14:24:21.445Z,98535.75
2024-01-03T14:26:48.109Z,98532.47
2024-01-03T14:29:14.791Z,98549.25
2024-01-03T14:31:44.167Z,98551.41
2024-01-03T14:34:11.631Z,98551.88
2024-01-03T14:36:38.269Z,98556.00
2024-01-03T14:39:09.306Z,98560.53
2024-01-03T14:41:38.575Z,98555.41
2024-01-03T14:44:11.045Z,98559.13
2024-01-03T14:46:37.644Z,98567.19
2024-01-03T14:49:04.963Z,98574.63
2024-01-03T14:51:31.712Z,98556.78
2024-01-03T14:53:59.437Z,98567.28
2024-01-03T14:56:28.641Z,98592.63
2024-01-03T14:58:56.418Z,98566.75
2024-01-03T15:01:22.967Z,98581.88
2024-01-03T15:03:49.636Z,98585.69
2024-01-03T15:06:17.909Z,98590.13
2024-01-03T15:08:44.744Z,98585.22
2024-01-03T15:11:11.317Z,98582.44
2024-01-03T15:13:39.140Z,98578.97
2024-01-03T15:16:05.952Z,98579.19
2024-01-03T15:18:32.610Z,98585.22
2024-01-03T15:21:03.533Z,98590.13
2024-01-03T15:23:30.730Z,98584.88
2024-01-03T15:25:59.406Z,98579.28
2024-01-03T15:28:28.391Z,98576.19
2024-01-03T15:30:55.415Z,98570.38
2024-01-03T15:33:25.711Z,98577.63
2024-01-03T15:35:52.612Z,98582.25
2024-01-03T15:38:19.167Z,98596.19
2024-01-03T15:40:45.655Z,98590.56
2024-01-03T15:43:12.659Z,98585.13
2024-01-03T15:45:39.408Z,98589.41
2024-01-03T15:48:06.970Z,98588.56
2024-01-03T15:50:34.058Z,98589.00
2024-01-03T15:53:00.795Z,98586.22
2024-01-03T15:55:27.480Z,98588.22
2024-01-03T15:57:54.449Z,98591.03
2024-01-03T16:00:23.597Z,98590.38
2024-01-03T16:02:50.282Z,98585.69
2024-01-03T16:05:16.931Z,98579.97
2024-01-03T16:07:43.473Z,98590.47
2024-01-03T16:10:10.026Z,98593.09
2024-01-03T16:12:36.575Z,98592.66
2024-01-03T16:15:03.337Z,98590.84
2024-01-03T16:17:30.121Z,98592.50
2024-01-03T16:19:56.685Z,98578.97
2024-01-03T16:22:25.266Z,98577.63
2024-01-03T16:24:51.956Z,98570.75
2024-01-03T16:27:20.078Z,98573.19
2024-01-03T16:29:47.008Z,98569.03
2024-01-03T16:32:14.057Z,98576.06
2024-01-03T16:34:40.817Z,98577.25
2024-01-03T16:37:13.071Z,98580.53
2024-01-03T16:39:39.812Z,98570.09
2024-01-03T16:42:06.497Z,98575.34
2024-01-03T16:44:33.267Z,98572.91
2024-01-03T16:46:59.960Z,98572.53
2024-01-03T16:49:27.052Z,98578.44
2024-01-03T16:51:57.182Z,98575.81
2024-01-03T16:54:25.079Z,98584.31
2024-01-03T16:56:51.629Z,98583.94
2024-01-03T16:59:21.011Z,98570.44
2024-01-03T17:01:47.752Z,98574.69
2024-01-03T17:04:16.411Z,98575.59
2024-01-03T17:06:45.545Z,98578.81
2024-01-03T17:09:14.407Z,98572.84
2024-01-03T17:11:41.323Z,98576.72
2024-01-03T17:14:08.203Z,98581.69
2024-01-03T17:16:35.626Z,98576.75
2024-01-03T17:19:02.782Z,98575.56
2024-01-03T17:21:29.896Z,98579.56
2024-01-03T17:23:57.262Z,98578.19
2024-01-03T17:26:27.266Z,98580.38
2024-01-03T17:28:56.930Z,98582.84
2024-01-03T17:31:24.343Z,98588.63
2024-01-03T17:33:51.483Z,98581.13
2024-01-03T17:36:18.636Z,98591.25
2024-01-03T17:38:48.199Z,98584.38
2024-01-03T17:41:21.860Z,98587.00
2024-01-03T17:43:48.625Z,98588.00
2024-01-03T17:46:15.272Z,98593.72
2024-01-03T17:48:42.324Z,98590.06
2024-01-03T17:51:10.483Z,98594.13
2024-01-03T17:53:37.698Z,98593.13
2024-01-03T17:56:08.858Z,98585.63
2024-01-03T17:58:35.460Z,98586.25
2024-01-03T18:01:01.979Z,98585.25
2024-01-03T18:03:29.820Z,98586.91
2024-01-03T18:05:56.833Z,98586.72
2024-01-03T18:08:23.764Z,98601.00
2024-01-03T18:10:51.933Z,98603.63
2024-01-03T18:13:19.113Z,98613.28
2024-01-03T18:15:45.755Z,98615.19
2024-01-03T18:18:12.855Z,98617.59
2024-01-03T18:20:39.649Z,98616.44
2024-01-03T18:23:06.311Z,98623.84
2024-01-03T18:25:32.855Z,98616.81
2024-01-03T18:27:59.535Z,98620.03
2024-01-03T18:30:26.147Z,98629.09
2024-01-03T18:32:56.644Z,98626.03
2024-01-03T18:35:23.859Z,98622.22
2024-01-03T18:37:50.585Z,98632.09
2024-01-03T18:40:17.172Z,98636.72
2024-01-03T18:42:44.071Z,98623.78
2024-01-03T18:45:11.250Z,98628.56
2024-01-03T18:47:38.006Z,98629.72
2024-01-03T18:50:06.196Z,98637.59
2024-01-03T18:52:33.942Z,98639.25
2024-01-03T18:55:02.105Z,98629.38
2024-01-03T18:57:29.880Z,98639.53
2024-01-03T18:59:57.774Z,98654.78
2024-01-03T19:02:24.458Z,98642.50
2024-01-03T19:04:51.179Z,98644.75
2024-01-03T19:07:17.795Z,98651.63
2024-01-03T19:09:44.353Z,98642.75
2024-01-03T19:12:11.217Z,98653.91
2024-01-03T19:14:37.801Z,98654.91
2024-01-03T19:17:04.575Z,98652.63
2024-01-03T19:19:31.317Z,98671.00
2024-01-03T19:21:58.106Z,98652.63
2024-01-03T19:24:26.061Z,98664.50
2024-01-03T19:26:53.878Z,98655.00
2024-01-03T19:29:20.484Z,98657.97
2024-01-03T19:31:47.153Z,98667.66
2024-01-03T19:34:13.816Z,98671.28
2024-01-03T19:36:43.133Z,98672.81
2024-01-03T19:39:12.539Z,98670.53
2024-01-03T19:41:39.667Z,98660.59
2024-01-03T19:44:06.364Z,98671.25
2024-01-03T19:46:34.375Z,98669.63
2024-01-03T19:49:04.897Z,98668.00
2024-01-03T19:51:32.714Z,98676.16
2024-01-03T19:54:00.116Z,98671.19
2024-01-03T19:56:27.590Z,98676.44
2024-01-03T19:58:54.153Z,98679.59
2024-01-03T20:01:22.117Z,98675.78
2024-01-03T20:03:48.778Z,98679.59
2024-01-03T20:06:25.016Z,98690.28
2024-01-03T20:08:52.440Z,98687.66
2024-01-03T20:11:19.149Z,98696.69
2024-01-03T20:13:49.372Z,98704.22
2024-01-03T20:16:15.852Z,98698.13
2024-01-03T20:18:43.116Z,98701.59
2024-01-03T20:21:10.996Z,98697.97
2024-01-03T20:23:38.390Z,98696.97
2024-01-03T20:26:15.984Z,98709.47
2024-01-03T20:28:44.646Z,98707.63
2024-01-03T20:31:12.068Z,98708.97
2024-01-03T20:33:39.385Z,98711.00
2024-01-03T20:36:07.014Z,98718.69
2024-01-03T20:38:37.309Z,98716.59
2024-01-03T20:41:04.824Z,98721.19
2024-01-03T20:43:36.672Z,98727.06
2024-01-03T20:46:04.505Z,98730.31
2024-01-03T20:48:33.198Z,98728.06
2024-01-03T20:51:00.132Z,98729.41
2024-01-03T20:53:30.379Z,98718.91
2024-01-03T20:55:57.846Z,98732.22
2024-01-03T20:58:24.558Z,98731.41
2024-01-03T21:00:51.212Z,98735.66
2024-01-03T21:03:17.883Z,98734.84
2024-01-03T21:05:44.486Z,98729.78
2024-01-03T21:08:11.059Z,98735.66
2024-01-03T21:10:37.671Z,98732.84
2024-01-03T21:13:04.278Z,98728.59
2024-01-03T21:15:30.771Z,98737.09
2024-01-03T21:17:57.644Z,98731.41
2024-01-03T21:20:24.403Z,98737.66
2024-01-03T21:22:51.228Z,98736.16
2024-01-03T21:25:18.487Z,98747.66
2024-01-03T21:27:50.478Z,98734.53
2024-01-03T21:30:23.091Z,98739.00
2024-01-03T21:32:52.169Z,98733.75
2024-01-03T21:35:18.885Z,98737.50
2024-01-03T21:37:45.403Z,98744.75
2024-01-03T21:40:12.268Z,98736.06
2024-01-03T21:42:43.110Z,98739.34
2024-01-03T21:45:10.421Z,98740.97
2024-01-03T21:47:40.115Z,98745.56
2024-01-03T21:50:09.907Z,98743.59
2024-01-03T21:52:38.595Z,98749.84
2024-01-03T21:55:05.385Z,98746.09
2024-01-03T21:57:34.333Z,98748.25
2024-01-03T22:00:01.074Z,98748.25
2024-01-03T22:02:27.724Z,98745.97
2024-01-03T22:04:54.179Z,98741.72
2024-01-03T22:07:20.671Z,98746.34
2024-01-03T22:09:47.241Z,98749.59
2024-01-03T22:12:13.906Z,98755.19
2024-01-03T22:14:47.626Z,98752.56
2024-01-03T22:17:14.340Z,98751.94
2024-01-03T22:19:41.445Z,98753.91
2024-01-03T22:22:08.046Z,98752.28
2024-01-03T22:24:34.562Z,98751.44
2024-01-03T22:27:01.090Z,98759.50
2024-01-03T22:29:27.665Z,98769.63
2024-01-03T22:31:54.166Z,98766.03
2024-01-03T22:34:20.965Z,98759.50
2024-01-03T22:36:47.665Z,98771.63
2024-01-03T22:39:14.691Z,98768.34
2024-01-03T22:41:41.933Z,98767.56
2024-01-03T22:44:08.991Z,98789.31
2024-01-03T22:46:40.447Z,98773.25
2024-01-03T22:49:07.239Z,98774.25
2024-01-03T22:51:33.858Z,98780.84
2024-01-03T22:54:02.392Z,98778.72
2024-01-03T22:56:30.757Z,98780.53
2024-01-03T22:58:57.287Z,98790.03
2024-01-03T23:01:23.822Z,98792.34
2024-01-03T23:03:50.408Z,98796.00
2024-01-03T23:06:17.093Z,98791.13
2024-01-03T23:08:43.665Z,98792.78
2024-01-03T23:11:10.367Z,98799.06
2024-01-03T23:13:36.934Z,98803.81
2024-01-03T23:16:03.826Z,98813.69
2024-01-03T23:18:30.585Z,98814.53
2024-01-03T23:20:57.285Z,98813.59
2024-01-03T23:23:30.140Z,98812.94
2024-01-03T23:26:03.234Z,98814.13
2024-01-03T23:28:29.697Z,98818.06
2024-01-03T23:30:56.355Z,98808.06
2024-01-03T23:33:23.015Z,98817.59
2024-01-03T23:35:49.695Z,98820.53
2024-01-03T23:38:16.238Z,98824.78
2024-01-03T23:40:42.767Z,98830.34
2024-01-03T23:43:09.213Z,98835.06
2024-01-03T23:45:35.843Z,98829.34
2024-01-03T23:48:02.416Z,98848.34
2024-01-03T23:50:29.006Z,98838.84
2024-01-03T23:52:55.620Z,98857.34
2024-01-03T23:55:24.440Z,98850.19
2024-01-03T23:57:51.131Z,98854.56
